sensor_id;sensor_type;location;lat;lon;timestamp;temperature;humidity
29031;DHT22;16122;50.236;11.734;2023-08-06T00:00:26;19.30;82.30
29031;DHT22;16122;50.236;11.734;2023-08-06T00:02:52;19.30;82.30
29031;DHT22;16122;50.236;11.734;2023-08-06T00:05:18;19.30;82.20
29031;DHT22;16122;50.236;11.734;2023-08-06T00:07:47;19.30;82.20
29031;DHT22;16122;50.236;11.734;2023-08-06T00:10:12;19.20;82.10
29031;DHT22;16122;50.236;11.734;2023-08-06T00:12:38;19.30;82.10
29031;DHT22;16122;50.236;11.734;2023-08-06T00:15:04;19.30;82.10
29031;DHT22;16122;50.236;11.734;2023-08-06T00:17:30;19.30;82.10
29031;DHT22;16122;50.236;11.734;2023-08-06T00:19:56;19.30;82.00
29031;DHT22;16122;50.236;11.734;2023-08-06T00:22:22;19.20;81.90
29031;DHT22;16122;50.236;11.734;2023-08-06T00:24:48;19.20;81.80
29031;DHT22;16122;50.236;11.734;2023-08-06T00:27:13;19.30;81.80
29031;DHT22;16122;50.236;11.734;2023-08-06T00:29:39;19.30;81.80
29031;DHT22;16122;50.236;11.734;2023-08-06T00:32:05;19.20;81.60
29031;DHT22;16122;50.236;11.734;2023-08-06T00:34:31;19.30;81.70
29031;DHT22;16122;50.236;11.734;2023-08-06T00:36:57;19.20;81.60
29031;DHT22;16122;50.236;11.734;2023-08-06T00:39:22;19.20;81.60
29031;DHT22;16122;50.236;11.734;2023-08-06T00:41:49;19.20;81.60
29031;DHT22;16122;50.236;11.734;2023-08-06T00:44:15;19.20;81.60
29031;DHT22;16122;50.236;11.734;2023-08-06T00:46:41;19.20;81.60
29031;DHT22;16122;50.236;11.734;2023-08-06T00:49:07;19.20;81.60
29031;DHT22;16122;50.236;11.734;2023-08-06T00:51:34;19.20;81.50
29031;DHT22;16122;50.236;11.734;2023-08-06T00:54:02;19.20;81.50
29031;DHT22;16122;50.236;11.734;2023-08-06T00:56:28;19.20;81.40
29031;DHT22;16122;50.236;11.734;2023-08-06T00:58:54;19.20;81.40
29031;DHT22;16122;50.236;11.734;2023-08-06T01:01:20;19.20;81.30
29031;DHT22;16122;50.236;11.734;2023-08-06T01:03:46;19.20;81.30
29031;DHT22;16122;50.236;11.734;2023-08-06T01:06:12;19.20;81.30
29031;DHT22;16122;50.236;11.734;2023-08-06T01:08:53;19.20;81.30
29031;DHT22;16122;50.236;11.734;2023-08-06T01:11:33;19.20;81.30
29031;DHT22;16122;50.236;11.734;2023-08-06T01:14:28;19.20;81.30
29031;DHT22;16122;50.236;11.734;2023-08-06T01:16:57;19.10;81.10
29031;DHT22;16122;50.236;11.734;2023-08-06T01:19:24;19.20;81.10
29031;DHT22;16122;50.236;11.734;2023-08-06T01:21:50;19.20;81.10
29031;DHT22;16122;50.236;11.734;2023-08-06T01:24:16;19.20;81.20
29031;DHT22;16122;50.236;11.734;2023-08-06T01:26:47;19.20;81.20
29031;DHT22;16122;50.236;11.734;2023-08-06T01:31:44;19.20;81.10
29031;DHT22;16122;50.236;11.734;2023-08-06T01:34:24;19.20;81.10
29031;DHT22;16122;50.236;11.734;2023-08-06T01:36:51;19.10;81.00
29031;DHT22;16122;50.236;11.734;2023-08-06T01:39:17;19.20;81.00
29031;DHT22;16122;50.236;11.734;2023-08-06T01:41:47;19.10;80.90
29031;DHT22;16122;50.236;11.734;2023-08-06T01:44:14;19.10;80.90
29031;DHT22;16122;50.236;11.734;2023-08-06T01:46:40;19.20;81.00
29031;DHT22;16122;50.236;11.734;2023-08-06T01:49:06;19.10;80.90
29031;DHT22;16122;50.236;11.734;2023-08-06T01:51:32;19.10;80.80
29031;DHT22;16122;50.236;11.734;2023-08-06T01:53:58;19.10;80.80
29031;DHT22;16122;50.236;11.734;2023-08-06T01:56:24;19.10;80.80
29031;DHT22;16122;50.236;11.734;2023-08-06T01:58:50;19.10;80.80
29031;DHT22;16122;50.236;11.734;2023-08-06T02:01:16;19.10;80.70
29031;DHT22;16122;50.236;11.734;2023-08-06T02:03:42;19.10;80.80
29031;DHT22;16122;50.236;11.734;2023-08-06T02:06:09;19.10;80.70
29031;DHT22;16122;50.236;11.734;2023-08-06T02:08:35;19.10;80.70
29031;DHT22;16122;50.236;11.734;2023-08-06T02:11:01;19.10;80.70
29031;DHT22;16122;50.236;11.734;2023-08-06T02:13:30;19.10;80.70
29031;DHT22;16122;50.236;11.734;2023-08-06T02:15:55;19.10;80.70
29031;DHT22;16122;50.236;11.734;2023-08-06T02:18:21;19.10;80.60
29031;DHT22;16122;50.236;11.734;2023-08-06T02:20:58;19.10;80.60
29031;DHT22;16122;50.236;11.734;2023-08-06T02:23:24;19.10;80.60
29031;DHT22;16122;50.236;11.734;2023-08-06T02:26:06;19.10;80.60
29031;DHT22;16122;50.236;11.734;2023-08-06T02:28:32;19.10;80.60
29031;DHT22;16122;50.236;11.734;2023-08-06T02:30:58;19.10;80.60
29031;DHT22;16122;50.236;11.734;2023-08-06T02:33:24;19.10;80.60
29031;DHT22;16122;50.236;11.734;2023-08-06T02:35:50;19.10;80.60
29031;DHT22;16122;50.236;11.734;2023-08-06T02:38:16;19.10;80.50
29031;DHT22;16122;50.236;11.734;2023-08-06T02:40:45;19.10;80.50
29031;DHT22;16122;50.236;11.734;2023-08-06T02:43:12;19.10;80.50
29031;DHT22;16122;50.236;11.734;2023-08-06T02:45:39;19.10;80.50
29031;DHT22;16122;50.236;11.734;2023-08-06T02:48:05;19.10;80.50
29031;DHT22;16122;50.236;11.734;2023-08-06T02:50:37;19.10;80.50
29031;DHT22;16122;50.236;11.734;2023-08-06T02:53:03;19.10;80.40
29031;DHT22;16122;50.236;11.734;2023-08-06T02:55:29;19.00;80.40
29031;DHT22;16122;50.236;11.734;2023-08-06T02:57:54;19.00;80.40
29031;DHT22;16122;50.236;11.734;2023-08-06T03:00:21;19.00;80.40
29031;DHT22;16122;50.236;11.734;2023-08-06T03:02:47;19.00;80.40
29031;DHT22;16122;50.236;11.734;2023-08-06T03:05:24;19.00;80.40
29031;DHT22;16122;50.236;11.734;2023-08-06T03:07:50;19.00;80.30
29031;DHT22;16122;50.236;11.734;2023-08-06T03:10:26;19.00;80.30
29031;DHT22;16122;50.236;11.734;2023-08-06T03:12:55;19.00;80.30
29031;DHT22;16122;50.236;11.734;2023-08-06T03:15:22;19.00;80.30
29031;DHT22;16122;50.236;11.734;2023-08-06T03:17:49;19.00;80.30
29031;DHT22;16122;50.236;11.734;2023-08-06T03:20:18;19.00;80.30
29031;DHT22;16122;50.236;11.734;2023-08-06T03:22:44;19.00;80.30
29031;DHT22;16122;50.236;11.734;2023-08-06T03:25:10;19.00;80.20
29031;DHT22;16122;50.236;11.734;2023-08-06T03:27:37;19.00;80.20
29031;DHT22;16122;50.236;11.734;2023-08-06T03:30:03;19.00;80.20
29031;DHT22;16122;50.236;11.734;2023-08-06T03:32:29;19.00;80.20
29031;DHT22;16122;50.236;11.734;2023-08-06T03:34:55;19.00;80.20
29031;DHT22;16122;50.236;11.734;2023-08-06T03:37:24;19.00;80.10
29031;DHT22;16122;50.236;11.734;2023-08-06T03:39:51;19.00;80.10
29031;DHT22;16122;50.236;11.734;2023-08-06T03:42:17;19.00;80.10
29031;DHT22;16122;50.236;11.734;2023-08-06T03:44:42;19.00;80.10
29031;DHT22;16122;50.236;11.734;2023-08-06T03:47:09;19.00;80.10
29031;DHT22;16122;50.236;11.734;2023-08-06T03:49:35;19.00;80.10
29031;DHT22;16122;50.236;11.734;2023-08-06T03:52:02;19.00;80.10
29031;DHT22;16122;50.236;11.734;2023-08-06T03:54:28;19.00;80.00
29031;DHT22;16122;50.236;11.734;2023-08-06T03:56:55;19.00;80.00
29031;DHT22;16122;50.236;11.734;2023-08-06T03:59:21;19.00;80.00
29031;DHT22;16122;50.236;11.734;2023-08-06T04:01:47;19.00;80.00
29031;DHT22;16122;50.236;11.734;2023-08-06T04:04:13;19.00;80.00
29031;DHT22;16122;50.236;11.734;2023-08-06T04:06:39;19.00;80.00
29031;DHT22;16122;50.236;11.734;2023-08-06T04:09:05;19.00;80.00
29031;DHT22;16122;50.236;11.734;2023-08-06T04:11:31;19.00;79.90
29031;DHT22;16122;50.236;11.734;2023-08-06T04:13:57;19.00;79.90
29031;DHT22;16122;50.236;11.734;2023-08-06T04:16:24;19.00;79.90
29031;DHT22;16122;50.236;11.734;2023-08-06T04:18:51;19.00;79.90
29031;DHT22;16122;50.236;11.734;2023-08-06T04:21:19;19.00;79.90
29031;DHT22;16122;50.236;11.734;2023-08-06T04:23:46;19.00;79.90
29031;DHT22;16122;50.236;11.734;2023-08-06T04:26:12;19.00;79.80
29031;DHT22;16122;50.236;11.734;2023-08-06T04:28:38;19.00;79.80
29031;DHT22;16122;50.236;11.734;2023-08-06T04:31:04;19.00;79.70
29031;DHT22;16122;50.236;11.734;2023-08-06T04:33:32;19.00;79.70
29031;DHT22;16122;50.236;11.734;2023-08-06T04:36:02;19.00;79.70
29031;DHT22;16122;50.236;11.734;2023-08-06T04:38:28;19.00;79.70
29031;DHT22;16122;50.236;11.734;2023-08-06T04:40:54;19.00;79.70
29031;DHT22;16122;50.236;11.734;2023-08-06T04:43:21;19.00;79.70
29031;DHT22;16122;50.236;11.734;2023-08-06T04:45:49;19.00;79.70
29031;DHT22;16122;50.236;11.734;2023-08-06T04:48:16;19.00;79.70
29031;DHT22;16122;50.236;11.734;2023-08-06T04:50:49;19.00;79.70
29031;DHT22;16122;50.236;11.734;2023-08-06T04:53:15;19.00;79.70
29031;DHT22;16122;50.236;11.734;2023-08-06T04:55:41;19.00;79.70
29031;DHT22;16122;50.236;11.734;2023-08-06T04:58:09;18.90;79.60
29031;DHT22;16122;50.236;11.734;2023-08-06T05:00:35;18.90;79.50
29031;DHT22;16122;50.236;11.734;2023-08-06T05:03:01;18.90;79.50
29031;DHT22;16122;50.236;11.734;2023-08-06T05:05:28;18.90;79.50
29031;DHT22;16122;50.236;11.734;2023-08-06T05:07:56;18.90;79.60
29031;DHT22;16122;50.236;11.734;2023-08-06T05:10:25;19.00;80.20
29031;DHT22;16122;50.236;11.734;2023-08-06T05:12:51;19.00;80.20
29031;DHT22;16122;50.236;11.734;2023-08-06T05:15:17;19.00;80.30
29031;DHT22;16122;50.236;11.734;2023-08-06T05:17:43;18.90;80.20
29031;DHT22;16122;50.236;11.734;2023-08-06T05:20:10;19.00;80.50
29031;DHT22;16122;50.236;11.734;2023-08-06T05:22:36;19.00;80.40
29031;DHT22;16122;50.236;11.734;2023-08-06T05:25:01;19.00;80.70
29031;DHT22;16122;50.236;11.734;2023-08-06T05:27:27;19.00;80.90
29031;DHT22;16122;50.236;11.734;2023-08-06T05:29:55;19.00;81.10
29031;DHT22;16122;50.236;11.734;2023-08-06T05:32:24;19.00;81.10
29031;DHT22;16122;50.236;11.734;2023-08-06T05:34:50;19.00;81.00
29031;DHT22;16122;50.236;11.734;2023-08-06T05:37:16;19.00;81.00
29031;DHT22;16122;50.236;11.734;2023-08-06T05:39:42;19.00;81.20
29031;DHT22;16122;50.236;11.734;2023-08-06T05:42:07;19.00;81.10
29031;DHT22;16122;50.236;11.734;2023-08-06T05:44:33;19.00;81.10
29031;DHT22;16122;50.236;11.734;2023-08-06T05:46:59;19.00;81.10
29031;DHT22;16122;50.236;11.734;2023-08-06T05:49:25;19.00;81.90
29031;DHT22;16122;50.236;11.734;2023-08-06T05:51:50;19.00;81.20
29031;DHT22;16122;50.236;11.734;2023-08-06T05:54:19;19.00;81.40
29031;DHT22;16122;50.236;11.734;2023-08-06T05:56:44;19.00;81.30
29031;DHT22;16122;50.236;11.734;2023-08-06T05:59:10;19.00;81.40
29031;DHT22;16122;50.236;11.734;2023-08-06T06:01:36;19.00;81.30
29031;DHT22;16122;50.236;11.734;2023-08-06T06:04:02;19.00;81.40
29031;DHT22;16122;50.236;11.734;2023-08-06T06:06:28;19.00;81.40
29031;DHT22;16122;50.236;11.734;2023-08-06T06:08:54;19.00;81.50
29031;DHT22;16122;50.236;11.734;2023-08-06T06:11:20;19.00;81.30
29031;DHT22;16122;50.236;11.734;2023-08-06T06:13:50;19.00;81.60
29031;DHT22;16122;50.236;11.734;2023-08-06T06:16:16;19.00;81.30
29031;DHT22;16122;50.236;11.734;2023-08-06T06:18:42;19.00;81.30
29031;DHT22;16122;50.236;11.734;2023-08-06T06:21:09;19.00;81.30
29031;DHT22;16122;50.236;11.734;2023-08-06T06:23:35;19.00;82.20
29031;DHT22;16122;50.236;11.734;2023-08-06T06:26:01;19.00;81.50
29031;DHT22;16122;50.236;11.734;2023-08-06T06:28:27;19.00;81.20
29031;DHT22;16122;50.236;11.734;2023-08-06T06:30:52;19.00;80.90
29031;DHT22;16122;50.236;11.734;2023-08-06T06:33:18;19.00;80.70
29031;DHT22;16122;50.236;11.734;2023-08-06T06:35:44;19.00;80.60
29031;DHT22;16122;50.236;11.734;2023-08-06T06:38:10;19.00;80.40
29031;DHT22;16122;50.236;11.734;2023-08-06T06:40:36;19.00;80.40
29031;DHT22;16122;50.236;11.734;2023-08-06T06:43:01;19.00;80.40
29031;DHT22;16122;50.236;11.734;2023-08-06T06:45:27;19.00;80.80
29031;DHT22;16122;50.236;11.734;2023-08-06T06:47:53;19.00;80.80
29031;DHT22;16122;50.236;11.734;2023-08-06T06:50:19;19.00;80.80
29031;DHT22;16122;50.236;11.734;2023-08-06T06:52:44;19.00;80.80
29031;DHT22;16122;50.236;11.734;2023-08-06T06:55:10;19.10;81.00
29031;DHT22;16122;50.236;11.734;2023-08-06T06:57:36;19.00;81.00
29031;DHT22;16122;50.236;11.734;2023-08-06T07:00:02;19.00;81.00
29031;DHT22;16122;50.236;11.734;2023-08-06T07:02:28;19.00;81.10
29031;DHT22;16122;50.236;11.734;2023-08-06T07:04:54;19.00;81.10
29031;DHT22;16122;50.236;11.734;2023-08-06T07:07:20;19.00;81.30
29031;DHT22;16122;50.236;11.734;2023-08-06T07:09:46;19.10;81.70
29031;DHT22;16122;50.236;11.734;2023-08-06T07:12:12;19.10;81.50
29031;DHT22;16122;50.236;11.734;2023-08-06T07:14:38;19.00;81.60
29031;DHT22;16122;50.236;11.734;2023-08-06T07:17:05;19.10;81.80
29031;DHT22;16122;50.236;11.734;2023-08-06T07:19:30;19.10;81.70
29031;DHT22;16122;50.236;11.734;2023-08-06T07:21:56;19.10;82.10
29031;DHT22;16122;50.236;11.734;2023-08-06T07:24:22;19.10;82.00
29031;DHT22;16122;50.236;11.734;2023-08-06T07:26:48;19.10;82.10
29031;DHT22;16122;50.236;11.734;2023-08-06T07:29:14;19.10;82.40
29031;DHT22;16122;50.236;11.734;2023-08-06T07:31:45;19.10;82.40
29031;DHT22;16122;50.236;11.734;2023-08-06T07:34:11;19.10;82.30
29031;DHT22;16122;50.236;11.734;2023-08-06T07:36:38;19.10;82.70
29031;DHT22;16122;50.236;11.734;2023-08-06T07:39:03;19.10;82.50
29031;DHT22;16122;50.236;11.734;2023-08-06T07:41:31;19.10;81.00
29031;DHT22;16122;50.236;11.734;2023-08-06T07:43:57;19.00;81.90
29031;DHT22;16122;50.236;11.734;2023-08-06T07:46:23;19.00;83.30
29031;DHT22;16122;50.236;11.734;2023-08-06T07:48:49;19.00;82.70
29031;DHT22;16122;50.236;11.734;2023-08-06T07:51:15;19.10;83.20
29031;DHT22;16122;50.236;11.734;2023-08-06T07:53:40;19.00;83.30
29031;DHT22;16122;50.236;11.734;2023-08-06T07:56:06;19.00;83.30
29031;DHT22;16122;50.236;11.734;2023-08-06T07:58:32;19.10;83.50
29031;DHT22;16122;50.236;11.734;2023-08-06T08:00:58;19.10;83.30
29031;DHT22;16122;50.236;11.734;2023-08-06T08:03:24;19.10;84.00
29031;DHT22;16122;50.236;11.734;2023-08-06T08:05:50;19.10;83.80
29031;DHT22;16122;50.236;11.734;2023-08-06T08:08:17;19.10;84.00
29031;DHT22;16122;50.236;11.734;2023-08-06T08:10:43;19.10;83.70
29031;DHT22;16122;50.236;11.734;2023-08-06T08:13:09;19.10;83.90
29031;DHT22;16122;50.236;11.734;2023-08-06T08:15:35;19.10;83.60
29031;DHT22;16122;50.236;11.734;2023-08-06T08:18:01;19.10;83.90
29031;DHT22;16122;50.236;11.734;2023-08-06T08:20:27;19.10;84.10
29031;DHT22;16122;50.236;11.734;2023-08-06T08:23:01;19.10;84.20
29031;DHT22;16122;50.236;11.734;2023-08-06T08:25:27;19.10;84.10
29031;DHT22;16122;50.236;11.734;2023-08-06T08:27:54;19.10;84.50
29031;DHT22;16122;50.236;11.734;2023-08-06T08:30:20;19.20;84.20
29031;DHT22;16122;50.236;11.734;2023-08-06T08:32:47;19.00;80.50
29031;DHT22;16122;50.236;11.734;2023-08-06T08:35:13;19.00;82.20
29031;DHT22;16122;50.236;11.734;2023-08-06T08:37:39;19.00;83.20
29031;DHT22;16122;50.236;11.734;2023-08-06T08:40:06;19.10;82.50
29031;DHT22;16122;50.236;11.734;2023-08-06T08:42:32;19.10;82.70
29031;DHT22;16122;50.236;11.734;2023-08-06T08:44:58;19.10;82.70
29031;DHT22;16122;50.236;11.734;2023-08-06T08:47:24;19.10;82.90
29031;DHT22;16122;50.236;11.734;2023-08-06T08:49:54;19.20;83.10
29031;DHT22;16122;50.236;11.734;2023-08-06T08:52:24;19.20;83.00
29031;DHT22;16122;50.236;11.734;2023-08-06T08:54:51;19.10;82.90
29031;DHT22;16122;50.236;11.734;2023-08-06T08:57:19;19.20;83.30
29031;DHT22;16122;50.236;11.734;2023-08-06T08:59:46;19.20;83.40
29031;DHT22;16122;50.236;11.734;2023-08-06T09:02:13;19.20;84.40
29031;DHT22;16122;50.236;11.734;2023-08-06T09:04:41;19.20;83.50
29031;DHT22;16122;50.236;11.734;2023-08-06T09:07:09;19.20;84.00
29031;DHT22;16122;50.236;11.734;2023-08-06T09:09:37;19.20;83.80
29031;DHT22;16122;50.236;11.734;2023-08-06T09:12:13;19.20;83.50
29031;DHT22;16122;50.236;11.734;2023-08-06T09:14:40;19.20;83.90
29031;DHT22;16122;50.236;11.734;2023-08-06T09:17:06;19.20;83.90
29031;DHT22;16122;50.236;11.734;2023-08-06T09:19:32;19.20;83.40
29031;DHT22;16122;50.236;11.734;2023-08-06T09:21:58;19.20;83.40
29031;DHT22;16122;50.236;11.734;2023-08-06T09:24:25;19.20;83.30
29031;DHT22;16122;50.236;11.734;2023-08-06T09:26:52;19.20;83.50
29031;DHT22;16122;50.236;11.734;2023-08-06T09:29:18;19.20;84.10
29031;DHT22;16122;50.236;11.734;2023-08-06T09:31:46;19.20;83.70
29031;DHT22;16122;50.236;11.734;2023-08-06T09:34:18;19.20;83.50
29031;DHT22;16122;50.236;11.734;2023-08-06T09:36:52;19.20;83.70
29031;DHT22;16122;50.236;11.734;2023-08-06T09:39:22;19.20;84.30
29031;DHT22;16122;50.236;11.734;2023-08-06T09:41:48;19.20;83.60
29031;DHT22;16122;50.236;11.734;2023-08-06T09:44:19;19.30;83.70
29031;DHT22;16122;50.236;11.734;2023-08-06T09:46:49;19.20;83.80
29031;DHT22;16122;50.236;11.734;2023-08-06T09:49:18;19.30;83.70
29031;DHT22;16122;50.236;11.734;2023-08-06T09:51:45;19.30;83.60
29031;DHT22;16122;50.236;11.734;2023-08-06T09:54:16;19.30;83.40
29031;DHT22;16122;50.236;11.734;2023-08-06T09:56:42;19.30;83.60
29031;DHT22;16122;50.236;11.734;2023-08-06T09:59:09;19.20;83.40
29031;DHT22;16122;50.236;11.734;2023-08-06T10:01:36;19.30;83.60
29031;DHT22;16122;50.236;11.734;2023-08-06T10:04:04;19.30;83.10
29031;DHT22;16122;50.236;11.734;2023-08-06T10:06:34;19.30;84.00
29031;DHT22;16122;50.236;11.734;2023-08-06T10:09:01;19.20;81.70
29031;DHT22;16122;50.236;11.734;2023-08-06T10:11:29;19.30;82.40
29031;DHT22;16122;50.236;11.734;2023-08-06T10:14:00;19.20;81.70
29031;DHT22;16122;50.236;11.734;2023-08-06T10:16:29;19.30;82.30
29031;DHT22;16122;50.236;11.734;2023-08-06T10:18:57;19.30;82.50
29031;DHT22;16122;50.236;11.734;2023-08-06T10:21:25;19.30;83.10
29031;DHT22;16122;50.236;11.734;2023-08-06T10:23:54;19.30;84.50
29031;DHT22;16122;50.236;11.734;2023-08-06T10:26:20;19.30;85.90
29031;DHT22;16122;50.236;11.734;2023-08-06T10:28:46;19.30;85.30
29031;DHT22;16122;50.236;11.734;2023-08-06T10:31:12;19.30;85.00
29031;DHT22;16122;50.236;11.734;2023-08-06T10:33:42;19.40;86.70
29031;DHT22;16122;50.236;11.734;2023-08-06T10:36:09;19.30;86.60
29031;DHT22;16122;50.236;11.734;2023-08-06T10:38:47;19.40;87.70
29031;DHT22;16122;50.236;11.734;2023-08-06T10:41:32;19.30;87.70
29031;DHT22;16122;50.236;11.734;2023-08-06T10:44:10;19.30;87.30
29031;DHT22;16122;50.236;11.734;2023-08-06T10:46:37;19.40;88.70
29031;DHT22;16122;50.236;11.734;2023-08-06T10:49:04;19.40;88.70
29031;DHT22;16122;50.236;11.734;2023-08-06T10:51:30;19.40;87.00
29031;DHT22;16122;50.236;11.734;2023-08-06T10:53:56;19.40;86.90
29031;DHT22;16122;50.236;11.734;2023-08-06T10:56:24;19.40;87.50
29031;DHT22;16122;50.236;11.734;2023-08-06T10:58:54;19.40;87.60
29031;DHT22;16122;50.236;11.734;2023-08-06T11:01:26;19.40;87.70
29031;DHT22;16122;50.236;11.734;2023-08-06T11:03:54;19.40;87.00
29031;DHT22;16122;50.236;11.734;2023-08-06T11:06:21;19.40;86.50
29031;DHT22;16122;50.236;11.734;2023-08-06T11:08:54;19.40;86.70
29031;DHT22;16122;50.236;11.734;2023-08-06T11:11:22;19.40;86.40
29031;DHT22;16122;50.236;11.734;2023-08-06T11:13:49;19.40;86.50
29031;DHT22;16122;50.236;11.734;2023-08-06T11:16:19;19.40;86.50
29031;DHT22;16122;50.236;11.734;2023-08-06T11:18:46;19.40;86.30
29031;DHT22;16122;50.236;11.734;2023-08-06T11:21:13;19.40;85.70
29031;DHT22;16122;50.236;11.734;2023-08-06T11:23:40;19.40;85.90
29031;DHT22;16122;50.236;11.734;2023-08-06T11:26:07;19.40;86.00
29031;DHT22;16122;50.236;11.734;2023-08-06T11:28:33;19.40;85.90
29031;DHT22;16122;50.236;11.734;2023-08-06T11:30:59;19.40;85.90
29031;DHT22;16122;50.236;11.734;2023-08-06T11:33:28;19.40;85.70
29031;DHT22;16122;50.236;11.734;2023-08-06T11:35:58;19.40;85.50
29031;DHT22;16122;50.236;11.734;2023-08-06T11:38:25;19.40;85.50
29031;DHT22;16122;50.236;11.734;2023-08-06T11:40:52;19.40;85.60
29031;DHT22;16122;50.236;11.734;2023-08-06T11:43:20;19.40;85.30
29031;DHT22;16122;50.236;11.734;2023-08-06T11:45:51;19.40;85.50
29031;DHT22;16122;50.236;11.734;2023-08-06T11:48:20;19.40;85.60
29031;DHT22;16122;50.236;11.734;2023-08-06T11:50:46;19.40;85.50
29031;DHT22;16122;50.236;11.734;2023-08-06T11:53:13;19.40;85.80
29031;DHT22;16122;50.236;11.734;2023-08-06T11:55:40;19.40;85.60
29031;DHT22;16122;50.236;11.734;2023-08-06T11:58:06;19.40;85.60
29031;DHT22;16122;50.236;11.734;2023-08-06T12:00:32;19.40;85.60
29031;DHT22;16122;50.236;11.734;2023-08-06T12:02:58;19.40;85.60
29031;DHT22;16122;50.236;11.734;2023-08-06T12:05:29;19.40;85.20
29031;DHT22;16122;50.236;11.734;2023-08-06T12:07:57;19.40;85.20
29031;DHT22;16122;50.236;11.734;2023-08-06T12:10:25;19.40;85.20
29031;DHT22;16122;50.236;11.734;2023-08-06T12:12:51;19.40;85.50
29031;DHT22;16122;50.236;11.734;2023-08-06T12:15:17;19.40;85.30
29031;DHT22;16122;50.236;11.734;2023-08-06T12:17:43;19.40;85.40
29031;DHT22;16122;50.236;11.734;2023-08-06T12:20:09;19.40;85.60
29031;DHT22;16122;50.236;11.734;2023-08-06T12:22:36;19.40;85.40
29031;DHT22;16122;50.236;11.734;2023-08-06T12:25:05;19.40;85.50
29031;DHT22;16122;50.236;11.734;2023-08-06T12:27:35;19.40;85.40
29031;DHT22;16122;50.236;11.734;2023-08-06T12:30:01;19.40;85.70
29031;DHT22;16122;50.236;11.734;2023-08-06T12:32:26;19.40;85.40
29031;DHT22;16122;50.236;11.734;2023-08-06T12:34:52;19.40;85.40
29031;DHT22;16122;50.236;11.734;2023-08-06T12:37:18;19.40;85.50
29031;DHT22;16122;50.236;11.734;2023-08-06T12:39:44;19.40;85.40
29031;DHT22;16122;50.236;11.734;2023-08-06T12:42:10;19.40;85.90
29031;DHT22;16122;50.236;11.734;2023-08-06T12:44:36;19.40;86.00
29031;DHT22;16122;50.236;11.734;2023-08-06T12:47:02;19.40;85.90
29031;DHT22;16122;50.236;11.734;2023-08-06T12:49:27;19.40;85.90
29031;DHT22;16122;50.236;11.734;2023-08-06T12:51:55;19.50;86.00
29031;DHT22;16122;50.236;11.734;2023-08-06T12:54:22;19.40;85.80
29031;DHT22;16122;50.236;11.734;2023-08-06T12:56:48;19.50;86.30
29031;DHT22;16122;50.236;11.734;2023-08-06T12:59:15;19.40;86.30
29031;DHT22;16122;50.236;11.734;2023-08-06T13:01:42;19.40;86.00
29031;DHT22;16122;50.236;11.734;2023-08-06T13:04:08;19.40;86.40
29031;DHT22;16122;50.236;11.734;2023-08-06T13:06:34;19.50;86.40
29031;DHT22;16122;50.236;11.734;2023-08-06T13:09:05;19.50;86.30
29031;DHT22;16122;50.236;11.734;2023-08-06T13:11:31;19.50;86.30
29031;DHT22;16122;50.236;11.734;2023-08-06T13:14:04;19.40;86.10
29031;DHT22;16122;50.236;11.734;2023-08-06T13:16:31;19.50;86.40
29031;DHT22;16122;50.236;11.734;2023-08-06T13:18:57;19.50;86.30
29031;DHT22;16122;50.236;11.734;2023-08-06T13:21:22;19.40;86.40
29031;DHT22;16122;50.236;11.734;2023-08-06T13:23:48;19.40;86.30
29031;DHT22;16122;50.236;11.734;2023-08-06T13:26:14;19.50;86.40
29031;DHT22;16122;50.236;11.734;2023-08-06T13:28:41;19.50;86.70
29031;DHT22;16122;50.236;11.734;2023-08-06T13:31:07;19.50;86.40
29031;DHT22;16122;50.236;11.734;2023-08-06T13:33:33;19.50;86.60
29031;DHT22;16122;50.236;11.734;2023-08-06T13:35:59;19.50;86.90
29031;DHT22;16122;50.236;11.734;2023-08-06T13:38:25;19.50;86.40
29031;DHT22;16122;50.236;11.734;2023-08-06T13:40:51;19.50;86.70
29031;DHT22;16122;50.236;11.734;2023-08-06T13:43:16;19.50;86.50
29031;DHT22;16122;50.236;11.734;2023-08-06T13:45:44;19.50;86.60
29031;DHT22;16122;50.236;11.734;2023-08-06T13:48:10;19.50;86.60
29031;DHT22;16122;50.236;11.734;2023-08-06T13:50:36;19.50;87.00
29031;DHT22;16122;50.236;11.734;2023-08-06T13:53:03;19.60;86.50
29031;DHT22;16122;50.236;11.734;2023-08-06T13:55:29;19.50;86.80
29031;DHT22;16122;50.236;11.734;2023-08-06T13:57:55;19.50;86.60
29031;DHT22;16122;50.236;11.734;2023-08-06T14:00:21;19.50;86.10
29031;DHT22;16122;50.236;11.734;2023-08-06T14:02:47;19.50;86.40
29031;DHT22;16122;50.236;11.734;2023-08-06T14:05:13;19.50;86.20
29031;DHT22;16122;50.236;11.734;2023-08-06T14:07:39;19.50;86.30
29031;DHT22;16122;50.236;11.734;2023-08-06T14:10:05;19.50;86.30
29031;DHT22;16122;50.236;11.734;2023-08-06T14:12:31;19.50;86.00
29031;DHT22;16122;50.236;11.734;2023-08-06T14:14:57;19.50;85.70
29031;DHT22;16122;50.236;11.734;2023-08-06T14:17:23;19.50;86.60
29031;DHT22;16122;50.236;11.734;2023-08-06T14:19:49;19.50;87.40
29031;DHT22;16122;50.236;11.734;2023-08-06T14:22:14;19.50;87.60
29031;DHT22;16122;50.236;11.734;2023-08-06T14:24:40;19.50;88.50
29031;DHT22;16122;50.236;11.734;2023-08-06T14:27:07;19.50;88.70
29031;DHT22;16122;50.236;11.734;2023-08-06T14:29:33;19.50;88.20
29031;DHT22;16122;50.236;11.734;2023-08-06T14:31:58;19.50;88.40
29031;DHT22;16122;50.236;11.734;2023-08-06T14:34:24;19.50;88.00
29031;DHT22;16122;50.236;11.734;2023-08-06T14:36:50;19.50;88.80
29031;DHT22;16122;50.236;11.734;2023-08-06T14:39:16;19.50;89.20
29031;DHT22;16122;50.236;11.734;2023-08-06T14:41:42;19.50;88.90
29031;DHT22;16122;50.236;11.734;2023-08-06T14:44:07;19.50;88.80
29031;DHT22;16122;50.236;11.734;2023-08-06T14:46:33;19.50;90.00
29031;DHT22;16122;50.236;11.734;2023-08-06T14:48:59;19.60;90.50
29031;DHT22;16122;50.236;11.734;2023-08-06T14:51:25;19.60;90.60
29031;DHT22;16122;50.236;11.734;2023-08-06T14:53:51;19.50;90.20
29031;DHT22;16122;50.236;11.734;2023-08-06T14:56:17;19.60;90.50
29031;DHT22;16122;50.236;11.734;2023-08-06T14:58:42;19.60;90.60
29031;DHT22;16122;50.236;11.734;2023-08-06T15:01:08;19.50;90.70
29031;DHT22;16122;50.236;11.734;2023-08-06T15:03:34;19.60;90.60
29031;DHT22;16122;50.236;11.734;2023-08-06T15:06:00;19.60;90.60
29031;DHT22;16122;50.236;11.734;2023-08-06T15:08:26;19.60;90.80
29031;DHT22;16122;50.236;11.734;2023-08-06T15:10:52;19.60;90.50
29031;DHT22;16122;50.236;11.734;2023-08-06T15:13:19;19.60;90.60
29031;DHT22;16122;50.236;11.734;2023-08-06T15:15:46;19.60;90.40